Time;durP1;ratioP1;P1;durP2;ratioP2;P2;SDS_P1;SDS_P2;PMS_P1;PMS_P2;Temp;Humidity;BMP_temperature;BMP_pressure;BME280_temperature;BME280_humidity;BME280_pressure;Samples;Min_cycle;Max_cycle;Signal;HPM_P1;HPM_P2
2021/05/17 00:03:07;;;;;;;11.45;7.00;;;9.70;99.90;;;;;;4182569;28;20031;-76
2021/05/17 00:07:48;;;;;;;10.05;6.25;;;9.60;99.90;;;;;;4175566;28;20087;-76
2021/05/17 00:10:07;;;;;;;10.13;7.40;;;9.70;99.90;;;;;;4182045;28;20033;-76
2021/05/17 00:12:26;;;;;;;8.70;6.35;;;9.60;99.90;;;;;;4178477;28;20048;-76
2021/05/17 00:14:29;;;;;;;7.72;6.30;;;9.50;99.90;;;;;;4171266;28;20111;-76
2021/05/17 00:19:09;;;;;;;7.93;7.13;;;9.50;99.90;;;;;;4177706;28;20032;-75
2021/05/17 00:23:29;;;;;;;9.55;7.20;;;9.50;99.90;;;;;;4175515;28;20047;-76
2021/05/17 00:25:49;;;;;;;10.00;7.43;;;9.50;99.90;;;;;;4181670;28;20029;-76
2021/05/17 00:28:09;;;;;;;8.55;7.43;;;9.50;99.90;;;;;;4174661;28;20035;-76
2021/05/17 00:32:49;;;;;;;11.77;8.10;;;9.50;99.90;;;;;;4181606;28;20498;-76
2021/05/17 00:35:09;;;;;;;12.65;8.70;;;9.50;99.90;;;;;;4181608;28;20029;-76
2021/05/17 00:37:10;;;;;;;10.30;7.47;;;9.50;99.90;;;;;;4156669;28;20438;-76
2021/05/17 00:42:09;;;;;;;9.27;7.95;;;9.50;99.90;;;;;;4170619;28;20051;-76
2021/05/17 00:44:29;;;;;;;12.65;7.80;;;9.50;99.90;;;;;;4181438;28;20033;-76
2021/05/17 00:46:49;;;;;;;11.52;8.45;;;9.50;99.90;;;;;;4181556;28;20055;-76
2021/05/17 00:49:08;;;;;;;15.73;9.45;;;9.50;99.90;;;;;;4150656;28;20938;-76
2021/05/17 00:51:09;;;;;;;12.63;9.57;;;9.50;99.90;;;;;;4181064;28;20052;-75
2021/05/17 00:53:11;;;;;;;15.07;9.30;;;9.50;99.90;;;;;;4163580;28;20389;-76
2021/05/17 00:57:51;;;;;;;14.65;10.15;;;9.50;99.90;;;;;;4172906;28;20047;-76
2021/05/17 01:02:12;;;;;;;15.10;10.57;;;9.50;99.90;;;;;;4179904;28;20031;-76
2021/05/17 01:07:10;;;;;;;19.33;10.68;;;9.50;99.90;;;;;;4181386;28;20175;-76
2021/05/17 01:11:31;;;;;;;16.52;10.82;;;9.50;99.90;;;;;;4176143;28;20074;-76
2021/05/17 01:13:33;;;;;;;15.30;10.93;;;9.50;99.90;;;;;;4163388;28;20158;-76
2021/05/17 01:17:55;;;;;;;13.45;9.48;;;9.60;99.90;;;;;;4180934;28;20098;-76
2021/05/17 01:20:27;;;;;;;12.27;9.45;;;9.60;99.90;;;;;;4163040;28;20117;-76
2021/05/17 01:25:07;;;;;;;12.18;8.57;;;9.60;99.90;;;;;;4168432;28;21839;-76
2021/05/17 01:27:09;;;;;;;9.30;8.10;;;9.60;99.90;;;;;;4180948;28;20112;-76
2021/05/17 01:29:47;;;;;;;10.13;7.60;;;9.50;99.90;;;;;;4162797;28;20029;-76
2021/05/17 01:32:08;;;;;;;10.40;7.03;;;9.50;99.90;;;;;;4180494;28;20045;-76
2021/05/17 01:34:10;;;;;;;11.50;8.18;;;9.60;99.90;;;;;;4173534;28;20116;-76
2021/05/17 01:39:10;;;;;;;10.77;7.80;;;9.50;99.90;;;;;;4169715;28;20091;-76
2021/05/17 01:41:13;;;;;;;14.40;8.25;;;9.40;99.90;;;;;;4162627;28;20103;-76
2021/05/17 01:43:16;;;;;;;11.85;7.25;;;9.50;99.90;;;;;;4180196;28;20515;-76
2021/05/17 01:45:17;;;;;;;13.55;7.93;;;9.60;99.90;;;;;;4180582;28;20112;-76
2021/05/17 01:47:21;;;;;;;10.88;8.07;;;9.60;99.90;;;;;;4166783;28;20037;-76
2021/05/17 01:49:41;;;;;;;10.45;7.97;;;9.70;99.90;;;;;;4174954;28;20033;-76
2021/05/17 01:52:02;;;;;;;10.80;7.47;;;9.60;99.90;;;;;;4175231;28;20025;-76
2021/05/17 01:54:08;;;;;;;8.02;7.03;;;9.60;99.90;;;;;;4179540;28;20082;-76
2021/05/17 01:56:11;;;;;;;12.63;7.63;;;9.60;99.90;;;;;;4180528;28;20124;-75
2021/05/17 02:03:48;;;;;;;12.20;7.90;;;9.60;99.90;;;;;;4180329;28;20071;-76
2021/05/17 02:05:50;;;;;;;10.35;7.53;;;9.60;99.90;;;;;;4162588;28;20436;-76
2021/05/17 02:08:28;;;;;;;10.07;8.63;;;9.60;99.90;;;;;;4180509;28;20039;-76
2021/05/17 02:10:47;;;;;;;14.85;8.38;;;9.60;99.90;;;;;;4179996;28;20052;-76
2021/05/17 02:13:12;;;;;;;12.85;9.13;;;9.60;99.90;;;;;;4153339;28;20033;-76
2021/05/17 02:15:50;;;;;;;9.85;7.13;;;9.70;99.90;;;;;;4195070;28;20037;-76
2021/05/17 02:18:06;;;;;;;11.88;8.68;;;9.80;99.90;;;;;;4195069;28;20142;-76
2021/05/17 02:20:29;;;;;;;13.98;7.18;;;9.90;99.90;;;;;;4179553;28;20126;-77
2021/05/17 02:22:48;;;;;;;14.70;7.80;;;9.90;99.90;;;;;;4162492;28;20026;-76
2021/05/17 02:29:47;;;;;;;12.80;8.50;;;9.80;99.90;;;;;;4180155;28;20036;-76
2021/05/17 02:31:47;;;;;;;11.73;9.00;;;9.70;99.90;;;;;;4156171;28;20025;-76
2021/05/17 02:39:05;;;;;;;15.18;11.05;;;9.70;99.90;;;;;;4172574;28;20158;-76
2021/05/17 02:44:22;;;;;;;15.90;9.93;;;9.70;99.90;;;;;;4174504;28;20039;-76
2021/05/17 02:46:23;;;;;;;16.10;11.00;;;9.60;99.90;;;;;;4175177;28;20037;-75
2021/05/17 02:48:28;;;;;;;19.60;12.25;;;9.60;99.90;;;;;;4160692;28;20056;-76
2021/05/17 02:56:09;;;;;;;16.80;11.07;;;9.70;99.90;;;;;;4175576;28;20035;-76
2021/05/17 02:58:16;;;;;;;16.20;10.25;;;9.70;99.90;;;;;;4173535;28;20029;-75
2021/05/17 03:00:21;;;;;;;17.02;10.65;;;9.70;99.90;;;;;;4179429;28;20438;-76
2021/05/17 03:02:28;;;;;;;16.52;10.52;;;9.70;99.90;;;;;;4179267;28;20372;-76
2021/05/17 03:07:11;;;;;;;14.55;10.52;;;9.70;99.90;;;;;;4175805;28;20525;-76
2021/05/17 03:09:32;;;;;;;16.15;9.95;;;9.70;99.90;;;;;;4178553;28;20475;-75
2021/05/17 03:11:53;;;;;;;17.35;10.85;;;9.70;99.90;;;;;;4171971;28;20032;-76
2021/05/17 03:14:14;;;;;;;20.55;10.63;;;9.70;99.90;;;;;;4161558;28;20045;-75
2021/05/17 03:16:34;;;;;;;17.23;10.32;;;9.60;99.90;;;;;;4178543;28;20052;-75
2021/05/17 03:18:36;;;;;;;14.52;9.55;;;9.60;99.90;;;;;;4161444;28;20034;-76
2021/05/17 03:23:16;;;;;;;17.77;10.25;;;9.70;99.90;;;;;;4179027;28;20070;-75
2021/05/17 03:28:01;;;;;;;20.38;10.70;;;9.60;99.90;;;;;;4179079;28;20024;-76
2021/05/17 03:32:40;;;;;;;17.25;11.35;;;9.70;99.90;;;;;;4178947;28;20430;-75
2021/05/17 03:34:41;;;;;;;16.83;10.00;;;9.60;99.90;;;;;;4176399;28;20040;-76
2021/05/17 03:39:20;;;;;;;17.88;9.48;;;9.70;99.90;;;;;;4178790;28;20076;-76
2021/05/17 03:41:21;;;;;;;19.60;11.23;;;9.60;99.90;;;;;;4157772;28;21146;-76
2021/05/17 03:43:40;;;;;;;17.13;10.00;;;9.60;99.90;;;;;;4178783;28;20084;-76
2021/05/17 03:46:00;;;;;;;17.00;9.50;;;9.60;99.90;;;;;;4179041;28;20032;-76
2021/05/17 03:50:39;;;;;;;15.10;9.00;;;9.70;99.90;;;;;;4178495;28;20036;-75
2021/05/17 03:52:40;;;;;;;18.48;9.68;;;9.70;99.90;;;;;;4179053;28;20468;-76
2021/05/17 03:57:19;;;;;;;19.27;9.38;;;9.80;99.90;;;;;;4178538;28;20147;-76
2021/05/17 04:03:58;;;;;;;17.83;8.63;;;9.80;99.90;;;;;;4179108;28;20031;-76
2021/05/17 04:15:54;;;;;;;19.00;9.95;;;9.90;99.90;;;;;;4178422;28;20031;-76
2021/05/17 04:18:14;;;;;;;19.10;9.25;;;10.00;99.90;;;;;;4178599;28;20025;-76
2021/05/17 04:20:14;;;;;;;15.77;9.23;;;10.00;99.90;;;;;;4160555;28;20062;-76
2021/05/17 04:22:15;;;;;;;19.63;9.02;;;10.00;99.90;;;;;;4161008;28;20022;-76
2021/05/17 04:27:12;;;;;;;17.35;8.90;;;10.20;99.90;;;;;;4169287;28;20076;-76
2021/05/17 04:29:14;;;;;;;17.27;8.65;;;10.20;99.90;;;;;;4178381;28;20064;-76
2021/05/17 04:31:33;;;;;;;15.02;9.13;;;10.20;99.90;;;;;;4160139;28;20029;-76
2021/05/17 04:33:52;;;;;;;16.10;9.10;;;10.20;99.90;;;;;;4178049;28;20044;-76
2021/05/17 04:36:12;;;;;;;20.83;10.27;;;10.20;99.90;;;;;;4160913;28;20123;-75
2021/05/17 04:38:13;;;;;;;19.48;10.13;;;10.20;99.90;;;;;;4196059;28;20526;-76
2021/05/17 04:47:51;;;;;;;17.73;9.63;;;10.00;99.90;;;;;;4181161;28;20114;-77
2021/05/17 04:55:27;;;;;;;19.73;10.25;;;10.00;99.90;;;;;;4178879;28;20091;-77
2021/05/17 04:57:46;;;;;;;15.80;8.55;;;10.00;99.90;;;;;;4163519;28;20026;-76
2021/05/17 04:59:47;;;;;;;18.00;9.77;;;10.00;99.90;;;;;;4181487;28;20029;-76
2021/05/17 05:01:48;;;;;;;15.10;9.82;;;9.90;99.90;;;;;;4164973;28;20405;-76
2021/05/17 05:03:48;;;;;;;19.67;9.18;;;10.00;99.90;;;;;;4181098;28;20395;-76
2021/05/17 05:06:08;;;;;;;14.88;8.93;;;10.00;99.90;;;;;;4181366;28;20043;-76
2021/05/17 05:08:27;;;;;;;15.65;8.93;;;10.00;99.90;;;;;;4162466;28;20033;-77
2021/05/17 05:10:28;;;;;;;16.70;8.55;;;10.00;99.90;;;;;;4180489;28;20074;-76
2021/05/17 05:12:28;;;;;;;17.77;8.98;;;10.00;99.90;;;;;;4179666;28;20033;-76
2021/05/17 05:14:48;;;;;;;17.05;8.32;;;10.10;99.90;;;;;;4178003;28;20037;-76
2021/05/17 05:16:48;;;;;;;18.40;8.25;;;10.20;99.90;;;;;;4163558;28;20437;-76
2021/05/17 05:18:49;;;;;;;17.35;8.30;;;10.20;99.90;;;;;;4181086;28;20029;-76
2021/05/17 05:20:49;;;;;;;14.23;9.23;;;10.20;99.90;;;;;;4162964;28;20393;-76
2021/05/17 05:22:52;;;;;;;18.98;11.02;;;10.20;99.90;;;;;;4181037;28;20037;-77
2021/05/17 05:25:12;;;;;;;17.05;10.63;;;10.20;99.90;;;;;;4163106;28;20045;-77
2021/05/17 05:32:31;;;;;;;19.80;8.27;;;10.50;99.90;;;;;;4180348;28;20036;-76
2021/05/17 05:36:51;;;;;;;15.77;7.80;;;10.60;99.90;;;;;;4181147;28;19997;-77
2021/05/17 05:39:11;;;;;;;13.60;8.35;;;10.70;99.90;;;;;;4180860;28;20025;-76
2021/05/17 05:41:11;;;;;;;11.82;7.95;;;10.90;99.90;;;;;;4172131;28;20589;-76
2021/05/17 05:43:12;;;;;;;12.10;7.78;;;11.00;99.90;;;;;;4163114;28;20018;-76
2021/05/17 05:45:33;;;;;;;12.43;8.75;;;11.10;99.90;;;;;;4180568;28;20465;-77
2021/05/17 05:47:33;;;;;;;15.15;8.90;;;11.10;99.90;;;;;;4174939;28;20041;-76
2021/05/17 05:49:34;;;;;;;12.07;8.27;;;11.00;99.90;;;;;;4162719;28;20041;-76
2021/05/17 05:51:54;;;;;;;10.43;7.80;;;11.00;99.90;;;;;;4162796;28;20091;-76
2021/05/17 05:53:59;;;;;;;9.40;6.95;;;11.00;99.90;;;;;;4180294;28;20551;-77
2021/05/17 05:56:18;;;;;;;12.35;7.35;;;11.10;99.90;;;;;;4180504;28;20104;-76
2021/05/17 05:58:19;;;;;;;10.20;7.15;;;11.10;99.90;;;;;;4160032;28;20029;-77
2021/05/17 06:00:22;;;;;;;17.10;8.48;;;11.20;99.90;;;;;;4161771;28;20026;-76
2021/05/17 06:02:23;;;;;;;10.20;7.55;;;11.20;99.90;;;;;;4145149;28;20117;-75
2021/05/17 06:07:04;;;;;;;8.77;7.65;;;11.20;99.90;;;;;;4179574;28;20399;-75
2021/05/17 06:09:23;;;;;;;10.90;7.63;;;11.20;99.90;;;;;;4178336;28;20029;-76
2021/05/17 06:11:26;;;;;;;10.55;7.45;;;11.10;99.90;;;;;;4177772;28;20065;-76
2021/05/17 06:13:27;;;;;;;16.45;8.35;;;11.20;99.90;;;;;;4161193;28;20096;-77
2021/05/17 06:15:29;;;;;;;15.48;8.70;;;11.20;99.90;;;;;;4161294;28;20055;-77
2021/05/17 06:17:30;;;;;;;12.10;7.40;;;11.10;99.90;;;;;;4178456;28;20025;-77
2021/05/17 06:19:31;;;;;;;14.75;8.13;;;11.00;99.90;;;;;;4175548;28;20037;-76
2021/05/17 06:21:51;;;;;;;9.95;7.63;;;10.90;99.90;;;;;;4178609;28;20112;-76
2021/05/17 06:23:53;;;;;;;12.40;8.40;;;10.90;99.90;;;;;;4158493;28;20029;-76
2021/05/17 06:28:33;;;;;;;17.50;7.35;;;10.90;99.90;;;;;;4176488;28;20048;-75
2021/05/17 06:33:50;;;;;;;11.77;7.15;;;11.00;99.90;;;;;;4178144;28;20048;-76
2021/05/17 06:36:12;;;;;;;9.50;6.80;;;11.00;99.90;;;;;;4171889;28;20037;-76
2021/05/17 06:38:31;;;;;;;12.38;8.10;;;11.00;99.90;;;;;;4172310;28;20178;-76
2021/05/17 06:40:52;;;;;;;16.20;7.63;;;11.00;99.90;;;;;;4178069;28;20040;-76
2021/05/17 06:45:14;;;;;;;12.10;6.60;;;11.10;99.90;;;;;;4177744;28;20045;-79
2021/05/17 06:47:34;;;;;;;9.43;6.72;;;11.10;99.90;;;;;;4176548;28;20029;-77
2021/05/17 06:54:15;;;;;;;15.15;8.07;;;11.00;99.90;;;;;;4175306;28;20507;-76
2021/05/17 06:56:39;;;;;;;16.17;8.85;;;10.90;99.90;;;;;;4179612;28;20336;-76
2021/05/17 06:59:19;;;;;;;16.67;7.25;;;10.90;99.90;;;;;;4178038;28;20021;-76
2021/05/17 07:01:39;;;;;;;12.43;7.75;;;11.10;99.90;;;;;;4172628;28;20369;-76
2021/05/17 07:03:40;;;;;;;12.95;8.32;;;11.20;99.90;;;;;;4178918;28;20059;-77
2021/05/17 07:05:59;;;;;;;13.15;7.97;;;11.10;99.90;;;;;;4161341;28;20029;-76
2021/05/17 07:12:42;;;;;;;14.93;7.22;;;11.40;99.90;;;;;;4178163;28;20035;-77
2021/05/17 07:15:05;;;;;;;13.18;7.93;;;11.40;99.90;;;;;;4158826;28;20029;-76
2021/05/17 07:17:24;;;;;;;12.32;7.63;;;11.40;99.90;;;;;;4158126;28;20036;-77
2021/05/17 07:19:25;;;;;;;16.92;8.15;;;11.60;99.90;;;;;;4175898;28;20032;-77
2021/05/17 07:23:47;;;;;;;11.32;7.15;;;11.60;99.90;;;;;;4178409;28;20529;-77
2021/05/17 07:25:48;;;;;;;14.48;8.20;;;11.70;99.90;;;;;;4160743;28;20033;-76
2021/05/17 07:27:49;;;;;;;15.05;8.90;;;11.80;99.90;;;;;;4179232;28;20033;-76
2021/05/17 07:32:27;;;;;;;11.85;7.22;;;11.90;99.90;;;;;;4171544;28;20028;-77
2021/05/17 07:34:30;;;;;;;16.65;8.13;;;12.10;99.90;;;;;;4177011;28;20446;-77
2021/05/17 07:36:32;;;;;;;13.45;7.00;;;12.20;99.90;;;;;;4161322;28;20466;-77
2021/05/17 07:38:52;;;;;;;14.90;6.25;;;12.30;99.90;;;;;;4161021;28;20050;-77
2021/05/17 07:43:31;;;;;;;16.30;7.28;;;12.70;99.90;;;;;;4178424;28;20082;-76
2021/05/17 07:45:51;;;;;;;10.10;7.40;;;12.70;99.90;;;;;;4160829;28;20128;-76
2021/05/17 07:47:51;;;;;;;15.02;7.75;;;12.70;99.90;;;;;;4158202;28;20041;-77
2021/05/17 07:49:53;;;;;;;15.35;6.00;;;12.50;99.90;;;;;;4178802;28;20031;-76
2021/05/17 07:51:54;;;;;;;16.92;9.35;;;12.40;99.90;;;;;;4161298;28;20038;-75
2021/05/17 07:53:54;;;;;;;10.60;7.40;;;12.40;99.90;;;;;;4164870;28;20618;-76
2021/05/17 07:55:55;;;;;;;13.25;7.38;;;12.40;99.90;;;;;;4178843;28;20029;-75
2021/05/17 07:57:57;;;;;;;13.80;7.50;;;12.50;99.90;;;;;;4160924;28;20056;-76
2021/05/17 08:00:17;;;;;;;9.18;6.78;;;12.60;99.90;;;;;;4175275;28;20083;-75
2021/05/17 08:02:21;;;;;;;12.27;6.35;;;12.50;99.90;;;;;;4175881;28;20057;-75
2021/05/17 08:04:42;;;;;;;12.70;7.20;;;12.60;99.90;;;;;;4176063;28;20048;-77
2021/05/17 08:07:03;;;;;;;11.77;5.63;;;12.80;99.90;;;;;;4177512;28;20041;-76
2021/05/17 08:11:43;;;;;;;11.88;5.50;;;13.30;99.90;;;;;;4178004;28;20041;-76
2021/05/17 08:14:03;;;;;;;10.95;6.50;;;13.60;99.90;;;;;;4162395;28;20041;-76
2021/05/17 08:16:04;;;;;;;15.45;7.63;;;13.80;99.90;;;;;;4155049;28;20026;-77
2021/05/17 08:18:05;;;;;;;10.27;5.30;;;13.90;99.90;;;;;;4162182;28;20037;-76
2021/05/17 08:20:44;;;;;;;8.40;4.90;;;14.00;99.90;;;;;;4162789;28;20064;-76
2021/05/17 08:22:45;;;;;;;8.73;5.53;;;14.20;99.90;;;;;;4179998;28;20083;-77
2021/05/17 08:30:23;;;;;;;6.28;4.75;;;14.50;99.90;;;;;;4176526;28;20040;-76
2021/05/17 08:41:42;;;;;;;11.50;6.30;;;14.40;99.90;;;;;;4180559;28;20093;-77
2021/05/17 08:46:21;;;;;;;8.52;5.05;;;14.70;99.90;;;;;;4180363;28;20073;-77
2021/05/17 08:51:29;;;;;;;5.55;4.82;;;14.60;99.90;;;;;;4180633;28;20044;-76
2021/05/17 08:53:30;;;;;;;7.90;4.75;;;14.70;99.90;;;;;;4178334;28;20443;-77
2021/05/17 08:58:27;;;;;;;11.32;4.75;;;15.30;99.90;;;;;;4180691;28;20076;-76
2021/05/17 09:00:28;;;;;;;7.78;5.03;;;15.10;99.90;;;;;;4180159;28;20553;-77
2021/05/17 09:02:28;;;;;;;8.85;5.72;;;14.60;99.90;;;;;;4179996;28;20067;-77
2021/05/17 09:04:47;;;;;;;7.57;6.03;;;14.30;99.90;;;;;;4162743;28;20124;-77
2021/05/17 09:07:07;;;;;;;6.97;5.43;;;14.00;99.90;;;;;;4177746;28;20037;-76
2021/05/17 09:09:25;;;;;;;5.63;5.13;;;13.90;99.90;;;;;;4177062;28;20098;-77
2021/05/17 09:11:54;;;;;;;7.00;6.03;;;14.00;99.90;;;;;;4162401;28;20037;-77
2021/05/17 09:14:25;;;;;;;6.47;5.63;;;14.40;99.90;;;;;;4162995;28;20843;-76
2021/05/17 09:17:01;;;;;;;6.35;5.20;;;15.00;99.90;;;;;;4176049;28;20032;-76
2021/05/17 09:22:04;;;;;;;7.03;4.75;;;15.50;99.90;;;;;;4178103;28;20090;-77
2021/05/17 09:27:21;;;;;;;9.32;4.80;;;15.30;99.90;;;;;;4180046;28;20031;-77
2021/05/17 09:32:04;;;;;;;7.03;4.68;;;15.50;99.90;;;;;;4178835;28;20028;-76
2021/05/17 09:34:06;;;;;;;6.07;5.07;;;15.60;99.90;;;;;;4178286;28;20033;-77
2021/05/17 09:36:40;;;;;;;7.20;5.15;;;15.60;99.90;;;;;;4162322;28;20041;-75
2021/05/17 09:38:41;;;;;;;5.78;5.03;;;15.70;99.90;;;;;;4180103;28;20541;-77
2021/05/17 09:40:41;;;;;;;8.52;5.50;;;15.80;99.90;;;;;;4162187;28;20030;-75
2021/05/17 09:42:42;;;;;;;6.15;5.45;;;15.90;99.90;;;;;;4180343;28;20422;-76
2021/05/17 09:44:45;;;;;;;7.80;4.75;;;15.90;99.90;;;;;;4161420;28;20053;-76
2021/05/17 09:47:05;;;;;;;6.22;5.55;;;16.30;99.90;;;;;;4161656;28;20060;-76
2021/05/17 09:51:51;;;;;;;6.70;5.05;;;16.50;99.90;;;;;;4177175;28;20142;-76
2021/05/17 09:53:52;;;;;;;6.85;4.82;;;16.70;99.90;;;;;;4177702;28;20064;-75
2021/05/17 09:56:17;;;;;;;6.00;4.95;;;17.20;99.90;;;;;;4180052;28;20376;-76
2021/05/17 09:58:39;;;;;;;5.68;5.18;;;17.70;99.90;;;;;;4178396;28;20032;-76
2021/05/17 10:00:59;;;;;;;5.60;4.43;;;17.60;99.90;;;;;;4178944;28;20106;-76
2021/05/17 10:03:03;;;;;;;6.10;5.00;;;17.50;99.90;;;;;;4177523;28;20021;-76
2021/05/17 10:05:11;;;;;;;8.73;5.07;;;17.70;99.90;;;;;;4179557;28;20025;-77
2021/05/17 10:07:31;;;;;;;6.35;4.88;;;17.50;99.90;;;;;;4179668;28;20028;-76
2021/05/17 10:09:32;;;;;;;6.68;5.28;;;17.70;99.90;;;;;;4179199;28;20017;-75
2021/05/17 10:12:10;;;;;;;9.15;5.00;;;17.80;99.90;;;;;;4162542;28;20034;-75
2021/05/17 10:14:30;;;;;;;6.72;5.25;;;17.40;99.90;;;;;;4174016;28;20179;-75
2021/05/17 10:16:30;;;;;;;8.00;4.78;;;16.80;99.90;;;;;;4162170;28;20029;-75
2021/05/17 10:18:33;;;;;;;7.60;5.60;;;16.50;99.90;;;;;;4178596;28;20121;-75
2021/05/17 10:22:55;;;;;;;8.18;6.28;;;15.50;99.90;;;;;;4186195;28;20196;-75
2021/05/17 10:25:02;;;;;;;9.55;7.55;;;15.10;99.90;;;;;;4160089;28;20120;-75
2021/05/17 10:27:22;;;;;;;10.82;6.45;;;15.00;99.90;;;;;;4180738;28;20053;-74
2021/05/17 10:31:53;;;;;;;9.30;5.93;;;14.80;99.90;;;;;;4169697;28;21239;-76
2021/05/17 10:39:55;;;;;;;5.57;4.38;;;15.00;99.90;;;;;;4173169;28;20132;-76
2021/05/17 10:46:41;;;;;;;4.10;3.70;;;14.30;99.90;;;;;;4180102;28;20068;-77
2021/05/17 10:48:41;;;;;;;6.78;5.15;;;14.20;99.90;;;;;;4174617;28;20118;-77
2021/05/17 10:54:00;;;;;;;5.63;4.70;;;13.90;99.90;;;;;;4178830;28;20175;-75
2021/05/17 11:01:29;;;;;;;5.97;5.38;;;13.80;99.90;;;;;;4177977;28;20029;-76
2021/05/17 11:04:08;;;;;;;7.45;6.00;;;13.90;99.90;;;;;;4160213;28;20075;-77
2021/05/17 11:06:09;;;;;;;7.25;5.97;;;13.80;99.90;;;;;;4160155;28;20034;-75
2021/05/17 11:08:17;;;;;;;7.90;5.93;;;13.80;99.90;;;;;;4173294;28;20069;-75
2021/05/17 11:10:37;;;;;;;6.53;5.72;;;14.00;99.90;;;;;;4179186;28;20472;-75
2021/05/17 11:12:58;;;;;;;9.13;6.65;;;14.20;99.90;;;;;;4178989;28;20036;-76
2021/05/17 11:15:26;;;;;;;7.90;6.68;;;14.20;99.90;;;;;;4194813;28;20039;-76
2021/05/17 11:19:48;;;;;;;10.48;7.80;;;14.00;99.90;;;;;;4168438;28;20082;-75
2021/05/17 11:26:59;;;;;;;9.60;8.05;;;13.90;99.90;;;;;;4168679;28;20083;-77
2021/05/17 11:29:48;;;;;;;11.25;7.65;;;14.10;99.90;;;;;;4174948;28;20490;-77
2021/05/17 11:32:07;;;;;;;11.68;7.43;;;14.60;99.90;;;;;;4161241;28;20067;-76
2021/05/17 11:34:30;;;;;;;7.30;6.70;;;15.40;99.90;;;;;;4147206;28;20044;-77
2021/05/17 11:36:39;;;;;;;8.27;7.43;;;16.00;99.90;;;;;;4177004;28;20492;-77
2021/05/17 11:41:59;;;;;;;7.78;5.80;;;18.90;99.90;;;;;;4152422;28;20115;-76
2021/05/17 11:49:18;;;;;;;6.43;5.72;;;18.40;99.90;;;;;;4183324;28;20048;-76
2021/05/17 11:51:37;;;;;;;6.05;5.50;;;18.10;99.90;;;;;;4171159;28;20475;-76
2021/05/17 11:53:57;;;;;;;7.95;7.25;;;17.50;99.90;;;;;;4182633;28;20064;-75
2021/05/17 11:56:21;;;;;;;7.65;6.97;;;16.50;99.90;;;;;;4180953;28;20037;-75
2021/05/17 11:58:40;;;;;;;7.50;6.72;;;15.90;99.90;;;;;;4182465;28;20479;-75
2021/05/17 12:00:41;;;;;;;8.70;7.82;;;15.30;99.90;;;;;;4181828;28;20021;-76
2021/05/17 12:02:52;;;;;;;8.98;7.82;;;14.80;99.90;;;;;;4166201;28;20034;-75
2021/05/17 12:05:12;;;;;;;7.70;7.00;;;14.40;99.90;;;;;;4167453;28;20026;-75
2021/05/17 12:07:52;;;;;;;7.78;6.88;;;14.30;99.90;;;;;;4165692;28;20022;-76
2021/05/17 12:15:17;;;;;;;10.00;8.82;;;13.70;99.90;;;;;;4183628;28;20043;-75
2021/05/17 12:17:55;;;;;;;11.70;8.43;;;13.40;99.90;;;;;;4164372;28;20095;-76
2021/05/17 12:22:23;;;;;;;12.23;8.00;;;13.10;99.90;;;;;;4180856;28;20530;-76
2021/05/17 12:24:43;;;;;;;7.38;6.20;;;13.10;99.90;;;;;;4165626;28;20112;-75
2021/05/17 12:32:54;;;;;;;6.63;5.47;;;14.10;99.90;;;;;;4179893;28;20076;-76
2021/05/17 12:40:21;;;;;;;5.60;5.10;;;16.30;99.90;;;;;;4181926;28;20036;-76
2021/05/17 12:42:22;;;;;;;4.65;4.25;;;16.90;99.90;;;;;;4182282;28;20068;-76
2021/05/17 12:44:41;;;;;;;3.90;3.60;;;17.20;99.90;;;;;;4157528;28;20030;-76
2021/05/17 12:49:20;;;;;;;4.22;3.83;;;18.60;99.90;;;;;;4181872;28;20116;-76
2021/05/17 12:51:39;;;;;;;4.80;4.28;;;19.30;99.90;;;;;;4165668;28;20488;-75
2021/05/17 12:53:59;;;;;;;4.90;3.70;;;;;;;;;;4165207;28;20052;-75
2021/05/17 12:58:57;;;;;;;3.72;3.42;;;20.20;99.90;;;;;;4179909;28;20662;-76
2021/05/17 13:01:19;;;;;;;5.90;3.95;;;20.60;99.90;;;;;;4168865;28;20034;-75
2021/05/17 13:03:52;;;;;;;3.95;3.58;;;20.70;99.90;;;;;;4178294;28;20028;-76
2021/05/17 13:05:58;;;;;;;4.30;3.90;;;20.50;99.90;;;;;;4162202;28;20026;-76
2021/05/17 13:08:00;;;;;;;5.00;4.50;;;19.30;99.90;;;;;;4179922;28;20743;-75
2021/05/17 13:10:19;;;;;;;5.68;4.15;;;18.90;99.90;;;;;;4161762;28;20373;-77
2021/05/17 13:17:19;;;;;;;4.78;4.28;;;19.40;99.90;;;;;;4179619;28;20112;-75
2021/05/17 13:24:55;;;;;;;6.10;5.50;;;18.00;99.90;;;;;;4178656;28;20506;-77
2021/05/17 13:32:22;;;;;;;14.95;13.15;;;15.10;99.90;;;;;;4179695;28;20069;-74
2021/05/17 13:34:41;;;;;;;14.70;12.80;;;14.60;99.90;;;;;;4155968;28;20530;-75
2021/05/17 13:36:42;;;;;;;20.92;15.15;;;14.10;99.90;;;;;;4180023;28;20040;-76
2021/05/17 13:39:01;;;;;;;19.48;17.50;;;13.60;99.90;;;;;;4189055;28;20040;-75
2021/05/17 13:41:04;;;;;;;21.60;18.70;;;13.10;99.90;;;;;;4179067;28;20115;-76
2021/05/17 13:48:03;;;;;;;20.02;16.60;;;12.60;99.90;;;;;;4172123;28;20036;-76
2021/05/17 13:50:07;;;;;;;23.73;19.33;;;12.40;99.90;;;;;;4175412;28;20035;-75
2021/05/17 13:52:08;;;;;;;19.25;16.20;;;12.40;99.90;;;;;;4162153;28;20060;-75
2021/05/17 13:56:30;;;;;;;24.33;19.85;;;12.60;99.90;;;;;;4177495;28;20102;-76
2021/05/17 14:03:28;;;;;;;21.00;17.52;;;13.10;99.90;;;;;;4176782;28;20040;-75
2021/05/17 14:05:29;;;;;;;27.10;19.27;;;13.20;99.90;;;;;;4179578;28;20033;-75
2021/05/17 14:12:29;;;;;;;23.40;19.80;;;13.00;99.90;;;;;;4179466;28;20040;-75
2021/05/17 14:14:30;;;;;;;23.05;18.65;;;13.00;99.90;;;;;;4161452;28;20042;-75
2021/05/17 14:16:55;;;;;;;25.00;19.40;;;12.80;99.90;;;;;;4179689;28;20044;-75
2021/05/17 14:23:35;;;;;;;26.45;20.77;;;13.00;99.90;;;;;;4177914;28;20090;-74
2021/05/17 14:25:37;;;;;;;22.73;20.20;;;13.20;99.90;;;;;;4179316;28;20487;-75
2021/05/17 14:27:39;;;;;;;23.45;19.23;;;13.30;99.90;;;;;;4179326;28;20048;-74
2021/05/17 14:29:59;;;;;;;25.00;19.38;;;13.40;99.90;;;;;;4161644;28;20092;-74
2021/05/17 14:32:18;;;;;;;23.30;18.83;;;13.50;99.90;;;;;;4179824;28;20505;-74
2021/05/17 14:34:19;;;;;;;22.52;18.23;;;13.70;99.90;;;;;;4178989;28;20030;-74
2021/05/17 14:36:38;;;;;;;21.75;17.80;;;13.70;99.90;;;;;;4178682;28;20376;-74
2021/05/17 14:38:39;;;;;;;24.35;16.88;;;13.80;99.90;;;;;;4178889;28;20072;-75
2021/05/17 14:43:01;;;;;;;17.77;14.52;;;13.70;99.90;;;;;;4175764;28;20039;-74
2021/05/17 14:45:20;;;;;;;19.33;15.75;;;13.80;99.90;;;;;;4160822;28;20021;-76
2021/05/17 14:47:22;;;;;;;20.52;14.35;;;14.10;99.90;;;;;;4159639;28;20048;-74
2021/05/17 14:49:42;;;;;;;16.50;13.55;;;14.50;99.90;;;;;;4161466;28;20035;-74
2021/05/17 14:52:01;;;;;;;19.02;13.77;;;14.90;99.90;;;;;;4161231;28;20488;-74
2021/05/17 14:54:03;;;;;;;15.32;12.70;;;15.20;99.90;;;;;;4160256;28;20516;-77
2021/05/17 14:56:23;;;;;;;12.70;11.40;;;15.30;99.90;;;;;;4175240;28;20048;-75
2021/05/17 14:58:24;;;;;;;14.43;11.55;;;15.30;99.90;;;;;;4161170;28;20025;-75
2021/05/17 15:05:41;;;;;;;8.88;6.20;;;17.10;99.90;;;;;;4169967;28;20059;-75
2021/05/17 15:10:25;;;;;;;4.10;3.58;;;17.90;99.90;;;;;;4177965;28;20094;-74
2021/05/17 15:12:25;;;;;;;4.68;4.03;;;17.10;99.90;;;;;;4174204;28;20399;-75
2021/05/17 15:17:23;;;;;;;4.45;3.80;;;17.30;99.90;;;;;;4166292;28;20481;-74
2021/05/17 15:22:01;;;;;;;4.90;3.60;;;16.50;99.90;;;;;;4169457;28;20348;-74
2021/05/17 15:24:21;;;;;;;3.85;3.35;;;16.20;99.90;;;;;;4161146;28;20037;-74
2021/05/17 15:26:40;;;;;;;8.05;3.80;;;15.90;99.90;;;;;;4161495;28;20156;-74
2021/05/17 15:29:00;;;;;;;3.58;2.95;;;15.50;99.90;;;;;;4179053;28;20032;-76
2021/05/17 15:31:19;;;;;;;3.45;3.15;;;15.30;99.90;;;;;;4172812;28;20440;-73
2021/05/17 15:33:38;;;;;;;4.07;3.63;;;15.30;99.90;;;;;;4177724;28;20037;-74
2021/05/17 15:35:57;;;;;;;5.43;2.90;;;15.50;99.90;;;;;;4178625;28;20510;-75
2021/05/17 15:40:19;;;;;;;4.45;2.83;;;17.90;99.90;;;;;;4178503;28;20090;-76
2021/05/17 15:42:58;;;;;;;3.75;3.08;;;18.50;99.90;;;;;;4161125;28;20030;-74
2021/05/17 15:44:58;;;;;;;3.53;2.60;;;18.50;99.90;;;;;;4161144;28;20124;-75
2021/05/17 15:46:59;;;;;;;4.28;2.78;;;19.10;99.90;;;;;;4160885;28;20033;-75
2021/05/17 15:49:19;;;;;;;3.65;2.75;;;19.60;99.90;;;;;;4161150;28;20049;-74
2021/05/17 15:51:58;;;;;;;4.90;3.03;;;19.80;99.90;;;;;;4160679;28;20029;-74
2021/05/17 16:01:37;;;;;;;5.55;3.78;;;18.50;99.90;;;;;;4178597;28;20083;-74
2021/05/17 16:03:57;;;;;;;6.78;3.83;;;18.00;99.90;;;;;;4160929;28;20034;-73
2021/05/17 16:05:57;;;;;;;5.05;3.03;;;17.50;99.90;;;;;;4154272;28;20460;-74
2021/05/17 16:08:00;;;;;;;7.68;3.95;;;16.90;99.90;;;;;;4178725;28;20037;-75
2021/05/17 16:10:43;;;;;;;4.65;3.13;;;16.60;99.90;;;;;;4178405;28;20033;-74
2021/05/17 16:22:39;;;;;;;6.20;3.47;;;17.80;99.90;;;;;;4179139;28;20109;-74
2021/05/17 16:24:58;;;;;;;7.60;4.18;;;18.10;99.90;;;;;;4178950;28;20029;-74
2021/05/17 16:26:59;;;;;;;4.90;3.40;;;18.00;99.90;;;;;;4179013;28;20044;-75
2021/05/17 16:28:59;;;;;;;6.88;4.10;;;17.90;99.90;;;;;;4178448;28;20044;-75